Time;durP1;ratioP1;P1;durP2;ratioP2;P2;SDS_P1;SDS_P2;PMS_P1;PMS_P2;Temp;Humidity;BMP_temperature;BMP_pressure;BME280_temperature;BME280_humidity;BME280_pressure;Samples;Min_cycle;Max_cycle;Signal;HPM_P1;HPM_P2
2024/01/29 00:02:05;;;;;;;8.90;3.70;;;;;;;7.02;67.05;101895.28;5057683;28;20127;-67
2024/01/29 00:04:30;;;;;;;7.75;3.67;;;;;;;6.96;67.05;101892.56;5051038;28;20052;-67
2024/01/29 00:06:55;;;;;;;5.45;3.55;;;;;;;6.87;67.44;101911.22;5048046;28;20029;-67
2024/01/29 00:09:21;;;;;;;9.93;3.78;;;;;;;6.96;67.51;101892.56;5069484;28;20058;-68
2024/01/29 00:11:47;;;;;;;6.40;3.45;;;;;;;6.86;68.23;101904.31;5050531;28;20098;-68
2024/01/29 00:14:12;;;;;;;10.23;3.90;;;;;;;6.82;68.14;101900.78;5050857;28;20041;-67
2024/01/29 00:16:38;;;;;;;6.10;3.30;;;;;;;6.83;68.57;101899.09;5043643;28;20044;-68
2024/01/29 00:19:04;;;;;;;8.80;3.83;;;;;;;6.77;68.84;101902.41;5045088;28;20123;-67
2024/01/29 00:21:29;;;;;;;6.38;3.58;;;;;;;6.71;69.23;101903.94;5044728;28;20417;-67
2024/01/29 00:23:56;;;;;;;7.78;3.50;;;;;;;6.62;69.30;101917.41;5065815;28;20081;-67
2024/01/29 00:26:21;;;;;;;6.43;3.92;;;;;;;6.55;70.21;101925.81;5050331;28;20041;-67
2024/01/29 00:28:47;;;;;;;6.45;3.92;;;;;;;6.45;70.49;101946.06;5048204;28;20076;-68
2024/01/29 00:31:12;;;;;;;7.13;3.40;;;;;;;6.45;70.93;101940.91;5047480;28;20028;-67
2024/01/29 00:33:37;;;;;;;8.23;3.50;;;;;;;6.42;70.92;101944.28;5066338;28;20502;-67
2024/01/29 00:36:03;;;;;;;7.70;4.18;;;;;;;6.39;71.24;101953.59;5049865;28;20129;-67
2024/01/29 00:38:29;;;;;;;7.03;3.70;;;;;;;6.31;71.16;101953.41;5051549;28;20033;-67
2024/01/29 00:40:54;;;;;;;10.18;3.90;;;;;;;6.26;71.98;101957.50;5057844;28;20502;-67
2024/01/29 00:43:19;;;;;;;8.65;4.13;;;;;;;6.28;72.05;101950.75;5064202;28;20404;-67
2024/01/29 00:45:45;;;;;;;8.88;3.85;;;;;;;6.20;72.18;101963.34;5047330;28;20101;-67
2024/01/29 00:48:10;;;;;;;7.90;3.60;;;;;;;6.17;71.89;101970.13;5045084;28;20035;-67
2024/01/29 00:50:35;;;;;;;9.55;4.07;;;;;;;6.08;72.81;101980.13;5066726;28;20138;-67
2024/01/29 00:53:01;;;;;;;10.98;4.00;;;;;;;5.98;73.37;101988.34;5066304;28;20039;-67
2024/01/29 00:55:26;;;;;;;7.22;3.72;;;;;;;5.93;74.11;101998.50;5062464;28;20044;-67
2024/01/29 00:57:52;;;;;;;8.73;3.38;;;;;;;5.90;74.38;102003.53;5045887;28;20113;-67
2024/01/29 01:00:17;;;;;;;6.90;4.45;;;;;;;5.88;74.87;102007.72;5047965;28;20057;-67
2024/01/29 01:02:42;;;;;;;8.05;4.13;;;;;;;5.95;74.02;101995.97;5046846;28;20041;-67
2024/01/29 01:05:08;;;;;;;6.93;3.60;;;;;;;5.94;74.26;101987.38;5047952;28;20045;-67
2024/01/29 01:07:33;;;;;;;8.48;3.67;;;;;;;5.88;74.48;101999.16;5059600;28;20037;-67
2024/01/29 01:09:58;;;;;;;7.38;4.45;;;;;;;5.89;74.18;102001.78;5073101;28;20040;-67
2024/01/29 01:12:24;;;;;;;10.40;4.07;;;;;;;5.88;74.87;102004.28;5067999;28;20406;-67
2024/01/29 01:14:49;;;;;;;8.65;4.20;;;;;;;5.83;74.82;102003.28;5065726;28;20246;-67
2024/01/29 01:17:15;;;;;;;6.70;4.28;;;;;;;5.83;74.50;102013.56;5066207;28;20490;-67
2024/01/29 01:19:40;;;;;;;6.00;3.90;;;;;;;5.84;74.72;102016.19;5075190;28;20040;-67
2024/01/29 01:22:05;;;;;;;6.90;3.75;;;;;;;5.86;74.84;102016.22;5063064;28;20069;-67
2024/01/29 01:24:30;;;;;;;6.18;3.63;;;;;;;5.81;75.25;102025.47;5046836;28;20043;-67
2024/01/29 01:26:56;;;;;;;8.35;3.83;;;;;;;5.77;75.11;102030.50;5047345;28;20064;-67
2024/01/29 01:29:21;;;;;;;6.30;3.53;;;;;;;5.82;75.33;102033.19;5047102;28;20112;-62
2024/01/29 01:31:46;;;;;;;5.78;3.85;;;;;;;5.74;75.06;102032.97;5049048;28;20068;-62
2024/01/29 01:34:12;;;;;;;6.10;3.88;;;;;;;5.75;75.33;102032.13;5046557;28;20029;-62
2024/01/29 01:36:37;;;;;;;5.68;3.53;;;;;;;5.76;75.56;102027.88;5045265;28;20028;-62
2024/01/29 01:39:04;;;;;;;8.93;4.15;;;;;;;5.72;76.05;102037.16;5055785;28;20564;-67
2024/01/29 01:41:29;;;;;;;6.97;3.83;;;;;;;5.74;76.45;102032.97;5049502;28;20071;-67
2024/01/29 01:43:54;;;;;;;9.00;4.10;;;;;;;5.77;75.97;102030.50;5048580;28;20049;-59
2024/01/29 01:46:22;;;;;;;8.23;3.55;;;;;;;5.76;76.28;102043.28;5046174;28;20041;-59
2024/01/29 01:48:49;;;;;;;5.97;3.58;;;;;;;5.70;76.47;102030.25;5046700;28;20430;-59
2024/01/29 01:51:16;;;;;;;6.57;3.70;;;;;;;5.67;76.53;102040.41;5048966;28;20052;-59
2024/01/29 01:53:42;;;;;;;7.10;3.45;;;;;;;5.68;76.11;102039.59;5064308;28;20574;-59
2024/01/29 01:56:07;;;;;;;6.55;3.47;;;;;;;5.87;75.46;102023.97;5066964;28;20078;-59
2024/01/29 01:58:33;;;;;;;6.82;4.00;;;;;;;5.86;75.92;102022.22;5064290;28;20032;-59
2024/01/29 02:00:59;;;;;;;5.93;3.47;;;;;;;5.91;75.57;102022.34;5062191;28;20044;-59
2024/01/29 02:03:25;;;;;;;5.07;3.13;;;;;;;5.84;76.16;102029.00;5072209;28;20035;-59
2024/01/29 02:05:51;;;;;;;8.32;3.58;;;;;;;5.86;75.88;102026.47;5049030;28;20591;-59
2024/01/29 02:08:17;;;;;;;4.90;2.95;;;;;;;5.85;75.91;102024.72;5053344;28;20037;-59
2024/01/29 02:10:44;;;;;;;6.68;3.72;;;;;;;5.90;75.24;102008.66;5042294;28;20053;-59
2024/01/29 02:13:13;;;;;;;7.53;3.50;;;;;;;5.90;75.21;102018.06;5054775;28;20578;-59
2024/01/29 02:15:38;;;;;;;6.38;3.20;;;;;;;5.87;75.43;102018.84;5065704;28;20503;-60
2024/01/29 02:18:04;;;;;;;6.28;3.08;;;;;;;5.89;75.66;102021.44;5069190;28;20028;-59
2024/01/29 02:20:30;;;;;;;7.95;3.35;;;;;;;5.91;75.44;102018.09;5066785;28;20037;-59
2024/01/29 02:22:56;;;;;;;6.43;3.53;;;;;;;6.08;74.79;101992.94;5053391;28;20128;-59
2024/01/29 02:25:21;;;;;;;6.32;4.15;;;;;;;6.09;75.01;101989.53;5043506;28;20128;-59
2024/01/29 02:27:46;;;;;;;11.35;4.03;;;;;;;6.04;74.62;101991.09;5051117;28;20081;-59
2024/01/29 02:30:13;;;;;;;5.97;3.35;;;;;;;6.11;74.83;101987.91;5045790;28;20029;-59
2024/01/29 02:32:38;;;;;;;8.77;3.20;;;;;;;6.19;74.10;101974.47;5048527;28;20033;-59
2024/01/29 02:35:04;;;;;;;5.55;3.35;;;;;;;6.40;73.32;101963.03;5045972;28;20041;-60
2024/01/29 02:37:30;;;;;;;5.75;3.38;;;;;;;6.52;72.59;101948.84;5052931;28;20163;-59
2024/01/29 02:39:56;;;;;;;7.35;4.05;;;;;;;6.53;71.84;101940.28;5048275;28;20480;-59
2024/01/29 02:42:21;;;;;;;6.43;3.33;;;;;;;6.60;71.75;101947.34;5045139;28;20036;-59
2024/01/29 02:44:47;;;;;;;8.50;3.33;;;;;;;6.60;71.88;101944.78;5066480;28;20484;-59
2024/01/29 02:47:14;;;;;;;8.85;3.20;;;;;;;6.60;72.18;101944.78;5056636;28;20037;-59
2024/01/29 02:49:40;;;;;;;7.20;3.15;;;;;;;6.63;72.23;101950.00;5050195;28;20048;-59
2024/01/29 02:52:05;;;;;;;7.45;3.65;;;;;;;6.51;72.70;101959.94;5045504;28;20068;-59
2024/01/29 02:54:31;;;;;;;7.22;3.80;;;;;;;6.41;72.91;101973.34;5047666;28;20132;-59
2024/01/29 02:56:56;;;;;;;5.97;3.10;;;;;;;6.28;73.41;101987.56;5044807;28;20140;-59
2024/01/29 02:59:22;;;;;;;7.03;3.75;;;;;;;6.24;74.27;102000.25;5049476;28;20694;-59
2024/01/29 03:01:47;;;;;;;6.85;3.83;;;;;;;6.14;74.17;102008.53;5059212;28;20067;-59
2024/01/29 03:04:12;;;;;;;5.57;3.25;;;;;;;6.04;75.20;102012.50;5072794;28;20037;-59
2024/01/29 03:06:38;;;;;;;6.38;3.70;;;;;;;6.03;75.25;102017.59;5072243;28;20036;-59
2024/01/29 03:09:04;;;;;;;6.57;3.92;;;;;;;6.00;75.67;102020.06;5065523;28;20576;-59
2024/01/29 03:11:29;;;;;;;6.30;3.67;;;;;;;6.02;75.47;102011.56;5067034;28;20078;-59
2024/01/29 03:13:54;;;;;;;5.43;3.33;;;;;;;5.91;75.64;102020.66;5069174;28;20040;-59
2024/01/29 03:16:20;;;;;;;5.63;3.00;;;;;;;5.81;76.56;102038.31;5073497;28;20032;-59
2024/01/29 03:18:45;;;;;;;5.05;3.42;;;;;;;5.83;77.17;102036.66;5067728;28;20051;-59
2024/01/29 03:21:10;;;;;;;5.03;3.65;;;;;;;5.73;77.33;102044.06;5068982;28;20040;-60
2024/01/29 03:23:36;;;;;;;7.03;3.35;;;;;;;5.71;77.34;102058.53;5072600;28;20036;-60
2024/01/29 03:26:01;;;;;;;6.05;3.30;;;;;;;5.74;77.43;102061.19;5069640;28;20459;-61
2024/01/29 03:28:26;;;;;;;5.65;3.50;;;;;;;5.67;77.98;102069.50;5069681;28;20040;-60
2024/01/29 03:30:52;;;;;;;6.00;3.13;;;;;;;5.56;78.46;102077.69;5065858;28;20036;-59
2024/01/29 03:33:17;;;;;;;7.80;3.63;;;;;;;5.56;77.88;102073.44;5072302;28;20028;-59
2024/01/29 03:35:42;;;;;;;5.07;3.20;;;;;;;5.58;78.32;102071.78;5051497;28;20033;-59
2024/01/29 03:38:08;;;;;;;8.68;3.67;;;;;;;5.50;78.57;102083.47;5047392;28;20032;-59
2024/01/29 03:40:33;;;;;;;7.07;3.70;;;;;;;5.56;78.24;102067.41;5057514;28;20483;-59
2024/01/29 03:42:58;;;;;;;6.63;3.85;;;;;;;5.55;78.54;102078.50;5064217;28;20129;-59
2024/01/29 03:45:24;;;;;;;11.27;3.67;;;;;;;5.58;78.72;102073.47;5069271;28;20033;-59
2024/01/29 03:47:49;;;;;;;8.18;3.90;;;;;;;5.69;78.36;102064.44;5068898;28;20076;-59
2024/01/29 03:50:15;;;;;;;6.57;3.60;;;;;;;5.78;77.54;102075.84;5069535;28;20064;-59
2024/01/29 03:52:40;;;;;;;6.80;4.03;;;;;;;5.76;77.75;102059.53;5071512;28;20032;-59
2024/01/29 03:55:06;;;;;;;8.82;4.13;;;;;;;5.73;77.74;102064.56;5068081;28;20037;-59
2024/01/29 03:57:31;;;;;;;8.13;3.55;;;;;;;5.73;77.29;102066.25;5069631;28;20081;-59
2024/01/29 03:59:56;;;;;;;8.57;3.88;;;;;;;5.76;77.62;102062.09;5071084;28;20036;-59
2024/01/29 04:02:23;;;;;;;6.55;3.78;;;;;;;5.72;78.10;102056.84;5055394;28;20045;-59
2024/01/29 04:04:49;;;;;;;4.97;3.20;;;;;;;5.70;78.41;102059.34;5052284;28;20032;-59
2024/01/29 04:07:15;;;;;;;10.38;3.97;;;;;;;5.72;78.17;102056.84;5053835;28;20033;-59
2024/01/29 04:09:40;;;;;;;5.55;4.05;;;;;;;5.74;78.04;102045.81;5046226;28;20089;-59
2024/01/29 04:12:06;;;;;;;6.35;4.28;;;;;;;5.77;77.80;102045.91;5049158;28;20029;-59
2024/01/29 04:14:31;;;;;;;8.48;4.00;;;;;;;5.75;78.17;102038.97;5059260;28;20051;-59
2024/01/29 04:16:57;;;;;;;7.47;3.60;;;;;;;5.74;78.38;102035.53;5070508;28;20066;-59
2024/01/29 04:19:22;;;;;;;6.53;4.40;;;;;;;5.72;78.50;102036.31;5069737;28;20764;-59
2024/01/29 04:21:48;;;;;;;5.95;3.35;;;;;;;5.71;78.28;102045.72;5067925;28;20099;-59
2024/01/29 04:24:15;;;;;;;5.70;3.90;;;;;;;5.67;78.72;102063.50;5065224;28;20032;-59
2024/01/29 04:26:41;;;;;;;6.80;3.90;;;;;;;5.70;78.24;102043.97;5048128;28;20511;-59
2024/01/29 04:29:08;;;;;;;5.93;3.58;;;;;;;5.61;78.62;102060.75;5047037;28;20037;-60
2024/01/29 04:31:35;;;;;;;8.10;3.72;;;;;;;5.47;79.01;102069.69;5047129;28;20503;-59
2024/01/29 04:34:00;;;;;;;10.10;3.80;;;;;;;5.40;80.13;102091.69;5051074;28;20057;-59
2024/01/29 04:36:26;;;;;;;5.88;3.88;;;;;;;5.38;80.19;102092.44;5048208;28;20049;-59
2024/01/29 04:38:51;;;;;;;6.85;4.30;;;;;;;5.29;80.48;102093.00;5046735;28;20124;-59
2024/01/29 04:41:21;;;;;;;6.85;4.03;;;;;;;5.20;81.42;102100.38;5066350;28;20047;-59
2024/01/29 04:43:46;;;;;;;9.77;4.35;;;;;;;5.09;82.01;102111.97;5068217;28;20128;-60
2024/01/29 04:46:12;;;;;;;6.78;4.32;;;;;;;5.10;82.05;102119.69;5059746;28;20132;-60
2024/01/29 04:48:39;;;;;;;7.70;3.90;;;;;;;5.04;82.60;102114.34;5051694;28;20025;-60
2024/01/29 04:51:07;;;;;;;8.48;4.00;;;;;;;5.01;82.46;102123.66;5047503;28;20041;-60
2024/01/29 04:53:34;;;;;;;6.93;4.18;;;;;;;4.95;82.52;102124.25;5044914;28;20430;-60
2024/01/29 04:56:02;;;;;;;7.00;3.95;;;;;;;4.97;83.31;102130.34;5049603;28;20108;-60
2024/01/29 04:58:28;;;;;;;7.25;4.13;;;;;;;4.95;83.39;102136.22;5047701;28;20037;-61
2024/01/29 05:00:54;;;;;;;7.00;3.92;;;;;;;4.91;83.29;102135.25;5049514;28;20478;-60
2024/01/29 05:03:19;;;;;;;8.48;4.20;;;;;;;4.87;83.38;102135.06;5071818;28;20039;-60
2024/01/29 05:05:44;;;;;;;6.00;4.10;;;;;;;4.86;83.90;102147.03;5070405;28;20467;-60
2024/01/29 05:08:09;;;;;;;6.97;4.43;;;;;;;4.86;84.41;102149.59;5068163;28;20392;-60
2024/01/29 05:10:35;;;;;;;7.97;4.10;;;;;;;4.85;83.51;102144.38;5066238;28;20075;-60
2024/01/29 05:13:00;;;;;;;9.63;4.80;;;;;;;4.83;84.66;102148.59;5069630;28;20129;-60
2024/01/29 05:15:27;;;;;;;5.78;4.05;;;;;;;4.81;84.14;102143.41;5064753;28;20491;-60
2024/01/29 05:17:53;;;;;;;8.13;4.18;;;;;;;4.78;84.46;102148.41;5068271;28;20521;-61
2024/01/29 05:20:18;;;;;;;7.75;4.35;;;;;;;4.72;85.26;102152.41;5064200;28;20040;-60
2024/01/29 05:22:44;;;;;;;7.18;4.40;;;;;;;4.72;85.96;102153.31;5064307;28;20024;-60
2024/01/29 05:25:09;;;;;;;9.93;5.00;;;;;;;4.80;84.87;102145.91;5065194;28;20033;-60
2024/01/29 05:27:35;;;;;;;9.65;4.55;;;;;;;4.78;85.62;102158.66;5064968;28;20032;-60
2024/01/29 05:30:00;;;;;;;6.65;4.25;;;;;;;4.66;85.68;102161.63;5060159;28;20037;-60
2024/01/29 05:32:25;;;;;;;8.48;4.65;;;;;;;4.58;86.95;102172.41;5070293;28;20028;-60
2024/01/29 05:34:51;;;;;;;10.43;4.80;;;;;;;4.52;87.26;102172.16;5069094;28;20044;-60
2024/01/29 05:37:16;;;;;;;9.00;5.20;;;;;;;4.48;87.10;102177.97;5066924;28;20124;-60
2024/01/29 05:39:42;;;;;;;9.13;4.90;;;;;;;4.49;87.97;102172.03;5072009;28;20038;-60
2024/01/29 05:42:07;;;;;;;7.40;4.93;;;;;;;4.48;87.31;102175.41;5065360;28;20025;-60
2024/01/29 05:44:32;;;;;;;8.63;4.70;;;;;;;4.47;88.05;102169.44;5065823;28;20037;-60
2024/01/29 05:46:58;;;;;;;7.10;4.65;;;;;;;4.45;87.77;102175.28;5061273;28;20506;-60
2024/01/29 05:49:23;;;;;;;7.93;4.30;;;;;;;4.45;88.01;102181.28;5056389;28;20033;-60
2024/01/29 05:51:49;;;;;;;7.30;4.70;;;;;;;4.43;89.03;102188.06;5042549;28;20029;-60
2024/01/29 05:54:14;;;;;;;9.90;5.30;;;;;;;4.38;88.37;102188.69;5043818;28;20036;-61
2024/01/29 05:56:45;;;;;;;11.98;5.30;;;;;;;4.37;89.22;102197.16;5044043;28;20082;-60
2024/01/29 05:59:10;;;;;;;6.60;4.40;;;;;;;4.31;89.99;102187.56;5055794;28;20495;-60
2024/01/29 06:01:35;;;;;;;8.18;4.63;;;;;;;4.30;89.61;102190.09;5066891;28;20065;-60
2024/01/29 06:04:01;;;;;;;9.65;5.10;;;;;;;4.26;89.86;102181.41;5068211;28;20039;-63
2024/01/29 06:06:27;;;;;;;6.10;4.07;;;;;;;4.22;90.25;102176.97;5067335;28;20121;-63
2024/01/29 06:08:53;;;;;;;7.95;5.45;;;;;;;4.26;90.33;102181.41;5041396;28;20061;-68
2024/01/29 06:11:22;;;;;;;8.15;5.03;;;;;;;4.33;90.63;102175.69;5041171;28;20033;-64
2024/01/29 06:13:47;;;;;;;10.00;4.78;;;;;;;4.30;90.23;102165.34;5043507;28;20060;-63
2024/01/29 06:16:19;;;;;;;8.38;4.95;;;;;;;4.27;90.72;102165.22;5041422;28;20808;-68
2024/01/29 06:18:44;;;;;;;7.07;4.90;;;;;;;4.21;91.30;102172.66;5045208;28;20541;-68
2024/01/29 06:21:09;;;;;;;7.22;4.97;;;;;;;4.22;91.60;102170.97;5047483;28;20033;-60
2024/01/29 06:23:35;;;;;;;6.85;4.63;;;;;;;4.39;91.16;102164.84;5042200;28;20041;-60
2024/01/29 06:26:00;;;;;;;5.65;4.38;;;;;;;4.50;91.00;102151.66;5043512;28;20602;-60
2024/01/29 06:28:26;;;;;;;10.48;4.20;;;;;;;4.59;90.38;102143.44;5045266;28;20025;-60
2024/01/29 06:30:51;;;;;;;8.52;4.25;;;;;;;4.54;89.18;102143.25;5042844;28;20083;-60
2024/01/29 06:33:16;;;;;;;8.07;5.45;;;;;;;4.52;89.42;102142.31;5043773;28;20025;-60
2024/01/29 06:35:42;;;;;;;9.65;5.07;;;;;;;4.50;90.63;102156.75;5043956;28;20408;-60
2024/01/29 06:38:07;;;;;;;10.38;5.03;;;;;;;4.43;91.22;102159.88;5041879;28;20068;-60
2024/01/29 06:40:33;;;;;;;8.23;4.85;;;;;;;4.38;90.41;102163.97;5044784;28;20047;-60
2024/01/29 06:42:58;;;;;;;7.28;5.13;;;;;;;4.30;90.82;102156.81;5042733;28;20041;-60
2024/01/29 06:45:24;;;;;;;9.35;5.18;;;;;;;4.33;91.51;102167.16;5037664;28;20123;-60
2024/01/29 06:47:49;;;;;;;11.60;5.05;;;;;;;4.27;91.32;102157.53;5043684;28;20391;-61
2024/01/29 06:50:14;;;;;;;7.50;4.45;;;;;;;4.25;91.54;102159.16;5044985;28;20143;-60
2024/01/29 06:52:40;;;;;;;9.25;5.40;;;;;;;4.24;91.60;102174.47;5046469;28;20086;-60
2024/01/29 06:55:05;;;;;;;7.97;5.18;;;;;;;4.21;92.55;102182.03;5043662;28;20190;-60
2024/01/29 06:57:31;;;;;;;10.48;5.40;;;;;;;4.27;92.14;102179.72;5037895;28;20032;-60
2024/01/29 06:59:57;;;;;;;9.23;6.00;;;;;;;4.26;92.39;102177.97;5038808;28;20036;-60
2024/01/29 07:02:22;;;;;;;9.98;5.85;;;;;;;4.30;93.06;102188.38;5044372;28;20084;-60
2024/01/29 07:04:48;;;;;;;8.93;5.10;;;;;;;4.30;92.49;102182.41;5049993;28;20056;-60
2024/01/29 07:07:13;;;;;;;9.20;5.38;;;;;;;4.37;91.89;102177.56;5048450;28;20146;-60
2024/01/29 07:09:40;;;;;;;7.32;4.75;;;;;;;4.48;93.22;102168.59;5045206;28;20036;-60
2024/01/29 07:12:06;;;;;;;7.22;5.13;;;;;;;4.73;91.48;102156.75;5065987;28;20024;-60
2024/01/29 07:14:31;;;;;;;12.20;5.35;;;;;;;4.80;90.60;102144.22;5066789;28;20121;-60
2024/01/29 07:16:57;;;;;;;9.63;5.18;;;;;;;4.91;90.63;102134.38;5068246;28;20119;-60
2024/01/29 07:19:33;;;;;;;8.00;4.80;;;;;;;5.05;89.83;102120.34;5071110;28;20557;-60
2024/01/29 07:22:04;;;;;;;9.30;4.80;;;;;;;5.17;89.03;102118.22;5070293;28;20439;-61
2024/01/29 07:24:33;;;;;;;8.88;5.45;;;;;;;5.17;88.79;102107.97;5070628;28;20037;-60
2024/01/29 07:26:59;;;;;;;10.25;5.97;;;;;;;5.26;88.26;102108.28;5069169;28;20117;-60
2024/01/29 07:29:26;;;;;;;10.32;5.28;;;;;;;5.48;87.31;102099.66;5057330;28;20492;-68
2024/01/29 07:31:53;;;;;;;7.97;5.60;;;;;;;5.38;87.33;102103.59;5053978;28;20106;-60
2024/01/29 07:34:18;;;;;;;12.48;5.32;;;;;;;5.31;87.56;102121.28;5070883;28;20116;-60
2024/01/29 07:36:44;;;;;;;11.75;5.50;;;;;;;5.27;87.85;102117.75;5067548;28;20107;-61
2024/01/29 07:39:12;;;;;;;8.15;5.15;;;;;;;5.33;87.58;102124.75;5073200;28;20059;-60
2024/01/29 07:41:39;;;;;;;10.57;5.43;;;;;;;5.34;88.43;102129.91;5069406;28;20448;-60
2024/01/29 07:44:04;;;;;;;10.82;5.78;;;;;;;5.41;87.42;102116.50;5069796;28;20032;-61
2024/01/29 07:46:30;;;;;;;9.40;5.40;;;;;;;5.46;86.84;102108.97;5062358;28;20041;-60
2024/01/29 07:48:56;;;;;;;8.13;5.43;;;;;;;5.49;87.22;102111.63;5044735;28;20045;-60
2024/01/29 07:51:22;;;;;;;7.97;5.43;;;;;;;5.57;87.07;102102.50;5063629;28;20033;-60
2024/01/29 07:53:47;;;;;;;9.48;5.15;;;;;;;5.59;87.07;102109.44;5049894;28;20041;-60
2024/01/29 07:56:13;;;;;;;8.65;5.05;;;;;;;5.63;86.62;102103.59;5047684;28;20491;-60
2024/01/29 07:58:38;;;;;;;9.80;5.03;;;;;;;5.78;85.79;102104.06;5046599;28;20061;-61
2024/01/29 08:01:04;;;;;;;8.20;4.78;;;;;;;5.77;86.04;102114.28;5044963;28;20045;-60
2024/01/29 08:03:30;;;;;;;9.25;5.32;;;;;;;5.70;86.77;102133.75;5048595;28;20036;-60
2024/01/29 08:05:55;;;;;;;11.02;5.07;;;;;;;5.68;87.18;102137.94;5049174;28;20032;-60
2024/01/29 08:08:21;;;;;;;8.98;5.20;;;;;;;5.61;87.32;102143.69;5056454;28;20037;-64
2024/01/29 08:10:48;;;;;;;9.65;6.10;;;;;;;5.60;87.48;102141.97;5049160;28;20400;-63
2024/01/29 08:13:13;;;;;;;12.88;7.35;;;;;;;5.60;88.03;102153.91;5055904;28;20583;-69
2024/01/29 08:15:38;;;;;;;10.02;5.68;;;;;;;5.60;87.83;102153.91;5053521;28;20024;-67
2024/01/29 08:18:04;;;;;;;9.70;5.40;;;;;;;5.62;87.50;102153.13;5052705;28;20041;-69
2024/01/29 08:20:29;;;;;;;8.55;5.30;;;;;;;5.65;87.62;102150.69;5053118;28;20115;-69
2024/01/29 08:22:55;;;;;;;8.55;5.82;;;;;;;5.64;87.95;102153.16;5050350;28;20125;-69
2024/01/29 08:25:20;;;;;;;11.52;5.13;;;;;;;5.65;87.46;102153.25;5054300;28;20041;-68
2024/01/29 08:27:46;;;;;;;10.90;5.95;;;;;;;5.70;87.59;102150.81;5049917;28;20129;-70
2024/01/29 08:30:11;;;;;;;9.23;5.78;;;;;;;5.76;87.57;102153.59;5047754;28;20072;-68
2024/01/29 08:32:37;;;;;;;9.63;5.40;;;;;;;5.86;87.19;102145.38;5051760;28;20341;-68
2024/01/29 08:35:03;;;;;;;9.93;5.53;;;;;;;5.99;86.44;102137.25;5053566;28;20021;-69
2024/01/29 08:37:29;;;;;;;7.68;5.22;;;;;;;6.02;86.49;102131.34;5053718;28;20033;-64
2024/01/29 08:39:58;;;;;;;11.55;5.50;;;;;;;6.11;85.91;102121.38;5056362;28;20560;-64
2024/01/29 08:42:23;;;;;;;15.85;5.95;;;;;;;6.20;85.54;102119.09;5052068;28;20385;-63
2024/01/29 08:44:49;;;;;;;5.93;4.53;;;;;;;6.30;84.81;102116.84;5050527;28;20051;-63
2024/01/29 08:47:15;;;;;;;12.90;6.22;;;;;;;6.30;84.60;102113.41;5061975;28;20040;-64
2024/01/29 08:49:40;;;;;;;8.45;5.38;;;;;;;6.32;84.85;102116.88;5056678;28;20048;-64
2024/01/29 08:52:06;;;;;;;8.50;5.15;;;;;;;6.39;84.47;102102.53;5045237;28;20120;-64
2024/01/29 08:54:31;;;;;;;9.68;5.70;;;;;;;6.45;83.89;102102.72;5054521;28;20658;-63
2024/01/29 08:56:56;;;;;;;12.15;5.88;;;;;;;6.46;83.95;102110.47;5054962;28;20033;-60
2024/01/29 08:59:22;;;;;;;8.30;5.25;;;;;;;6.53;83.95;102106.38;5045833;28;20041;-60
2024/01/29 09:01:47;;;;;;;11.07;5.47;;;;;;;6.60;83.42;102100.59;5044766;28;20559;-64
2024/01/29 09:04:13;;;;;;;10.77;5.13;;;;;;;6.73;83.17;102093.28;5048626;28;20083;-64
2024/01/29 09:06:38;;;;;;;8.80;4.90;;;;;;;6.79;82.58;102097.75;5048040;28;20028;-63
2024/01/29 09:09:04;;;;;;;7.38;4.88;;;;;;;6.89;81.97;102086.88;5048542;28;20048;-63
2024/01/29 09:11:29;;;;;;;9.18;5.68;;;;;;;6.97;82.42;102094.81;5045757;28;20123;-63
2024/01/29 09:13:54;;;;;;;10.88;5.13;;;;;;;7.03;81.67;102089.84;5046590;28;20116;-63
2024/01/29 09:16:20;;;;;;;13.18;5.40;;;;;;;7.10;81.15;102077.16;5046875;28;20036;-63
2024/01/29 09:18:45;;;;;;;8.70;4.85;;;;;;;7.09;81.52;102078.00;5046873;28;20024;-63
2024/01/29 09:21:10;;;;;;;9.85;4.80;;;;;;;7.12;80.94;102065.22;5048364;28;20134;-62
2024/01/29 09:23:38;;;;;;;8.88;5.57;;;;;;;7.21;80.26;102065.50;5044304;28;20052;-64
2024/01/29 09:26:04;;;;;;;8.32;5.07;;;;;;;7.22;80.06;102063.78;5046058;28;20075;-60
2024/01/29 09:28:29;;;;;;;11.98;5.20;;;;;;;7.26;79.95;102055.34;5055588;28;20415;-60
2024/01/29 09:30:54;;;;;;;9.27;5.35;;;;;;;7.27;80.02;102064.78;5045514;28;20037;-60
2024/01/29 09:33:20;;;;;;;11.48;5.60;;;;;;;7.27;79.71;102057.06;5045504;28;20025;-60
2024/01/29 09:35:46;;;;;;;8.10;5.05;;;;;;;7.29;79.71;102066.59;5042257;28;20571;-60
2024/01/29 09:38:13;;;;;;;14.45;5.90;;;;;;;7.32;79.35;102060.63;5053905;28;20047;-61
2024/01/29 09:40:42;;;;;;;9.52;5.78;;;;;;;7.42;78.85;102055.75;5047943;28;20041;-60
2024/01/29 09:43:10;;;;;;;10.95;6.07;;;;;;;7.48;78.76;102049.88;5044476;28;20032;-60
2024/01/29 09:45:37;;;;;;;10.02;5.78;;;;;;;7.49;79.05;102063.63;5045964;28;20086;-60
2024/01/29 09:48:04;;;;;;;8.65;5.00;;;;;;;7.54;78.93;102062.03;5040941;28;20040;-70
2024/01/29 09:50:31;;;;;;;8.55;4.82;;;;;;;7.56;78.71;102068.97;5041364;28;20080;-63
2024/01/29 09:52:57;;;;;;;9.45;5.38;;;;;;;7.63;78.89;102069.97;5043923;28;20060;-69
2024/01/29 09:55:25;;;;;;;10.18;5.20;;;;;;;7.70;78.30;102059.00;5044102;28;20542;-59
2024/01/29 09:57:50;;;;;;;9.05;5.15;;;;;;;7.76;78.14;102057.44;5043579;28;20044;-60
2024/01/29 10:00:17;;;;;;;8.77;5.95;;;;;;;7.83;78.57;102053.31;5045122;28;20052;-60
2024/01/29 10:02:44;;;;;;;14.15;6.28;;;;;;;7.93;77.80;102050.09;5040293;28;20040;-64
2024/01/29 10:05:11;;;;;;;9.65;6.45;;;;;;;7.98;77.84;102058.81;5042543;28;20102;-60
2024/01/29 10:07:37;;;;;;;8.02;5.22;;;;;;;8.09;77.45;102047.06;5043769;28;20060;-64
2024/01/29 10:10:10;;;;;;;9.55;5.45;;;;;;;8.26;77.41;102048.28;5043297;28;20037;-64
2024/01/29 10:12:36;;;;;;;9.30;5.40;;;;;;;8.38;76.60;102039.94;5046486;28;20369;-64
2024/01/29 10:15:02;;;;;;;7.68;5.05;;;;;;;8.49;75.56;102031.59;5045639;28;20079;-64
2024/01/29 10:17:27;;;;;;;9.18;5.38;;;;;;;8.56;75.61;102028.31;5046473;28;20086;-64
2024/01/29 10:19:53;;;;;;;7.57;4.85;;;;;;;8.60;75.67;102042.13;5043351;28;20032;-62
2024/01/29 10:22:24;;;;;;;9.43;5.47;;;;;;;8.67;75.83;102036.22;5046730;28;20058;-61
2024/01/29 10:25:02;;;;;;;10.60;5.53;;;;;;;8.83;74.78;102030.56;5042741;28;20057;-63
2024/01/29 10:27:28;;;;;;;8.23;5.18;;;;;;;8.95;74.87;102019.59;5047602;28;20083;-63
2024/01/29 10:29:53;;;;;;;13.95;5.88;;;;;;;9.05;74.39;102021.50;5041801;28;20049;-63
2024/01/29 10:32:22;;;;;;;8.93;5.88;;;;;;;9.16;74.67;102014.81;5043185;28;20108;-64
2024/01/29 10:34:48;;;;;;;8.38;5.85;;;;;;;9.27;74.39;102012.41;5049872;28;20061;-61
2024/01/29 10:37:15;;;;;;;11.00;5.57;;;;;;;9.34;74.48;102020.28;5049952;28;20037;-62
2024/01/29 10:39:41;;;;;;;10.32;5.30;;;;;;;9.44;73.36;102008.38;5046719;28;20064;-61
2024/01/29 10:42:09;;;;;;;6.90;5.38;;;;;;;9.49;74.19;102007.63;5038439;28;20064;-62
2024/01/29 10:44:37;;;;;;;8.77;5.30;;;;;;;9.52;73.41;102009.41;5044456;28;20075;-62
2024/01/29 10:47:09;;;;;;;10.63;5.65;;;;;;;9.53;72.83;101998.19;5042532;28;20017;-61
2024/01/29 10:49:36;;;;;;;10.70;5.97;;;;;;;9.66;73.50;101995.88;5068530;28;20028;-61
2024/01/29 10:52:03;;;;;;;9.65;5.63;;;;;;;9.70;72.33;101989.06;5037370;28;20037;-62
2024/01/29 10:54:31;;;;;;;8.43;5.57;;;;;;;9.76;72.81;101983.97;5040411;28;20035;-62
2024/01/29 10:56:59;;;;;;;10.55;6.45;;;;;;;9.86;71.88;101975.50;5041260;28;20063;-61
2024/01/29 10:59:25;;;;;;;9.43;5.50;;;;;;;9.92;72.00;101970.41;5069106;28;20017;-61
2024/01/29 11:01:52;;;;;;;8.25;5.40;;;;;;;9.97;71.66;101973.09;5043968;28;20029;-61
2024/01/29 11:04:19;;;;;;;15.88;6.70;;;;;;;10.02;71.42;101969.72;5046809;28;20082;-62
2024/01/29 11:06:59;;;;;;;11.98;5.35;;;;;;;10.12;71.43;101971.53;5059054;28;20456;-62
2024/01/29 11:09:27;;;;;;;7.95;5.30;;;;;;;10.15;71.25;101965.53;5067602;28;20028;-61
2024/01/29 11:11:55;;;;;;;9.05;5.15;;;;;;;10.18;71.02;101976.78;5057446;28;20040;-61
2024/01/29 11:14:21;;;;;;;9.15;6.25;;;;;;;10.24;71.21;101973.41;5048105;28;20040;-62
2024/01/29 11:16:47;;;;;;;8.48;5.35;;;;;;;10.35;70.70;101968.38;5045287;28;20033;-61
2024/01/29 11:19:13;;;;;;;8.23;5.50;;;;;;;10.43;70.28;101943.47;5054140;28;20040;-62
2024/01/29 11:21:51;;;;;;;11.70;5.93;;;;;;;10.51;70.95;101962.53;5060125;28;20061;-61
2024/01/29 11:24:20;;;;;;;9.15;5.20;;;;;;;10.64;70.54;101954.94;5043518;28;20094;-62
2024/01/29 11:26:46;;;;;;;8.18;5.38;;;;;;;10.77;69.67;101940.41;5041544;28;20086;-62